ADDS METAR Data INFO
IDs: Format: Raw Decoded Include TAF

Data at: 0051 UTC 22 Oct 2017

METAR for:KLAL (Lakeland Rgnl, FL, US)
Text:KLAL 212355Z 07009KT 10SM FEW070 BKN200 25/19 A3013
Temperature: 25.0°C ( 77°F)
Dewpoint: 19.0°C ( 66°F) [RH = 69%]
Pressure (altimeter):30.13 inches Hg (1020.4 mb)
Winds:from the ENE (70 degrees) at 10 MPH (9 knots; 4.6 m/s)
Visibility:10 or more sm (16+ km)
Ceiling:20000 feet AGL
Clouds: few clouds at 7000 feet AGL, broken clouds at 20000 feet AGL